Time;durP1;ratioP1;P1;durP2;ratioP2;P2;SDS_P1;SDS_P2;PMS_P1;PMS_P2;Temp;Humidity;BMP_temperature;BMP_pressure;BME280_temperature;BME280_humidity;BME280_pressure;Samples;Min_cycle;Max_cycle;Signal;HPM_P1;HPM_P2
2022/01/18 00:00:56;;;;;;;2.10;1.03;;;16.90;48.80;;;;;;5083349;28;20028;-55
2022/01/18 00:03:22;;;;;;;1.00;0.80;;;16.90;48.70;;;;;;5082478;28;20048;-56
2022/01/18 00:05:50;;;;;;;1.00;0.80;;;16.90;48.70;;;;;;5083442;28;20032;-53
2022/01/18 00:08:17;;;;;;;0.80;0.77;;;16.90;48.70;;;;;;5103195;28;20051;-56
2022/01/18 00:10:44;;;;;;;1.05;0.95;;;16.90;48.70;;;;;;5102885;28;20039;-54
2022/01/18 00:13:35;;;;;;;1.37;1.13;;;16.80;48.60;;;;;;5102316;28;20151;-55
2022/01/18 00:18:35;;;;;;;0.80;0.70;;;16.90;48.80;;;;;;5100072;28;20028;-56
2022/01/18 00:23:34;;;;;;;0.98;0.70;;;16.90;48.80;;;;;;5102415;28;20036;-55
2022/01/18 00:26:00;;;;;;;1.25;1.10;;;16.90;48.80;;;;;;5102689;28;20028;-56
2022/01/18 00:28:28;;;;;;;0.98;0.80;;;16.80;48.60;;;;;;5084332;28;20032;-55
2022/01/18 00:31:29;;;;;;;1.02;0.80;;;16.80;48.60;;;;;;5087538;28;20039;-55
2022/01/18 00:33:57;;;;;;;1.67;1.10;;;16.80;48.70;;;;;;5082787;28;20069;-52
2022/01/18 00:36:59;;;;;;;0.90;0.85;;;16.90;48.90;;;;;;5079994;28;20151;-54
2022/01/18 00:39:25;;;;;;;1.00;0.88;;;16.90;48.90;;;;;;5081143;28;20032;-53
2022/01/18 00:41:51;;;;;;;1.00;0.80;;;16.90;48.80;;;;;;5047240;28;20035;-53
2022/01/18 00:44:17;;;;;;;1.10;1.00;;;16.90;48.80;;;;;;5094529;28;20029;-56
2022/01/18 00:46:43;;;;;;;1.38;1.00;;;16.90;48.70;;;;;;5090484;28;20071;-55
2022/01/18 00:49:11;;;;;;;1.08;0.80;;;16.80;48.70;;;;;;5094068;28;20528;-53
2022/01/18 00:51:39;;;;;;;0.98;0.80;;;16.90;48.80;;;;;;5087240;28;20048;-56
2022/01/18 00:54:06;;;;;;;1.35;1.00;;;16.90;48.60;;;;;;5094427;28;20028;-57
2022/01/18 00:56:32;;;;;;;2.85;0.90;;;17.00;48.60;;;;;;5088666;28;20032;-55
2022/01/18 00:58:59;;;;;;;1.60;1.20;;;17.20;48.80;;;;;;5091286;28;21263;-57
2022/01/18 01:01:28;;;;;;;1.27;1.00;;;17.30;48.80;;;;;;5083372;28;20322;-58
2022/01/18 01:03:58;;;;;;;1.23;1.10;;;17.40;48.90;;;;;;5085660;28;20039;-58
2022/01/18 01:06:24;;;;;;;1.02;0.90;;;17.50;48.90;;;;;;5067475;28;20036;-53
2022/01/18 01:08:52;;;;;;;1.17;1.00;;;17.60;49.00;;;;;;5091578;28;20085;-58
2022/01/18 01:11:19;;;;;;;2.25;0.80;;;17.70;49.20;;;;;;5085296;28;20052;-54
2022/01/18 01:13:47;;;;;;;2.07;1.60;;;17.90;49.10;;;;;;5085661;28;20055;-55
2022/01/18 01:36:00;;;;;;;2.35;1.00;;;18.90;48.90;;;;;;5089110;28;20040;-48
2022/01/18 01:46:25;;;;;;;1.02;0.80;;;19.40;48.60;;;;;;5070104;28;20109;-50
2022/01/18 01:48:56;;;;;;;0.90;0.80;;;19.50;48.70;;;;;;5071088;28;20036;-58
2022/01/18 01:51:29;;;;;;;0.93;0.80;;;19.70;48.50;;;;;;5088529;28;20068;-60
2022/01/18 01:53:56;;;;;;;1.23;0.90;;;19.80;48.30;;;;;;5085388;28;20027;-49
2022/01/18 01:56:23;;;;;;;0.85;0.82;;;19.90;48.40;;;;;;5090106;28;20035;-53
2022/01/18 01:58:49;;;;;;;1.88;1.35;;;20.00;48.20;;;;;;5086706;28;20055;-52
2022/01/18 02:01:16;;;;;;;0.98;0.80;;;20.10;48.20;;;;;;5086752;28;20025;-50
2022/01/18 02:03:42;;;;;;;1.58;0.90;;;20.20;48.10;;;;;;5082380;28;20025;-59
2022/01/18 02:06:08;;;;;;;0.88;0.82;;;20.30;48.00;;;;;;5084144;28;20078;-56
2022/01/18 02:08:34;;;;;;;1.20;0.98;;;20.40;47.90;;;;;;5068940;28;20028;-58
2022/01/18 02:11:00;;;;;;;1.02;0.80;;;20.50;47.90;;;;;;5088435;28;20055;-59
2022/01/18 02:13:26;;;;;;;1.30;0.90;;;20.50;48.00;;;;;;5104228;28;20038;-56
2022/01/18 02:24:00;;;;;;;1.05;0.80;;;21.00;47.30;;;;;;5104169;28;20077;-59
2022/01/18 02:26:26;;;;;;;1.35;0.90;;;21.20;47.20;;;;;;5106594;28;20056;-56
2022/01/18 02:28:52;;;;;;;1.25;0.85;;;21.30;47.20;;;;;;5106319;28;20016;-48
2022/01/18 02:31:21;;;;;;;1.88;1.00;;;21.40;47.00;;;;;;5102464;28;20149;-56
2022/01/18 02:33:47;;;;;;;0.88;0.77;;;21.50;46.90;;;;;;5105135;28;20111;-56
2022/01/18 02:36:13;;;;;;;1.50;1.00;;;21.50;46.60;;;;;;5084914;28;20027;-54
2022/01/18 02:38:39;;;;;;;1.15;0.98;;;21.40;46.20;;;;;;5105032;28;20019;-53
2022/01/18 02:41:07;;;;;;;0.93;0.80;;;21.30;46.60;;;;;;5121749;28;20028;-54
2022/01/18 02:43:53;;;;;;;0.85;0.80;;;21.30;46.80;;;;;;5117231;28;20020;-53
2022/01/18 02:46:19;;;;;;;1.20;1.10;;;21.20;46.90;;;;;;5104259;28;20058;-55
2022/01/18 02:48:45;;;;;;;2.03;1.10;;;21.20;46.60;;;;;;5087610;28;20024;-51
2022/01/18 02:51:11;;;;;;;1.45;1.20;;;21.20;46.30;;;;;;5115512;28;20035;-54
2022/01/18 02:54:03;;;;;;;1.33;1.13;;;21.20;46.00;;;;;;5089262;28;20564;-55
2022/01/18 02:56:34;;;;;;;1.23;1.10;;;21.30;45.90;;;;;;5104015;28;20065;-53
2022/01/18 02:59:15;;;;;;;1.48;1.02;;;21.40;45.90;;;;;;5104086;28;20107;-55
2022/01/18 03:04:25;;;;;;;1.23;1.02;;;21.60;46.00;;;;;;5103679;28;20027;-55
2022/01/18 03:06:52;;;;;;;1.27;1.17;;;21.70;45.60;;;;;;5108263;28;20027;-54
2022/01/18 03:09:18;;;;;;;1.05;0.95;;;21.70;45.10;;;;;;5107625;28;20058;-54
2022/01/18 03:11:44;;;;;;;1.55;1.10;;;21.60;45.30;;;;;;5103915;28;20044;-51
2022/01/18 03:14:11;;;;;;;1.17;0.98;;;21.60;45.50;;;;;;5111078;28;20036;-53
2022/01/18 03:16:37;;;;;;;1.13;1.02;;;21.50;45.60;;;;;;5083614;28;20056;-52
2022/01/18 03:19:03;;;;;;;2.00;1.10;;;21.50;45.50;;;;;;5102288;28;20038;-52
2022/01/18 03:21:29;;;;;;;2.08;1.10;;;21.50;45.30;;;;;;5106864;28;20023;-49
2022/01/18 03:24:11;;;;;;;1.80;0.90;;;21.60;45.10;;;;;;5102226;28;20032;-59
2022/01/18 03:28:04;;;;;;;1.10;0.82;;;21.80;45.20;;;;;;5100694;28;20059;-45
2022/01/18 03:29:25;;;;;;;1.50;1.20;;;22.00;44.70;;;;;;5084817;28;20070;-46
2022/01/18 03:31:51;;;;;;;1.35;0.85;;;22.10;44.60;;;;;;5102615;28;20032;-43
2022/01/18 03:34:17;;;;;;;2.55;1.02;;;21.90;45.00;;;;;;5102362;28;20032;-43
2022/01/18 03:36:43;;;;;;;1.40;1.10;;;21.80;45.10;;;;;;5102379;28;20028;-43
2022/01/18 03:39:09;;;;;;;3.08;1.25;;;21.80;45.10;;;;;;5101025;28;20024;-43
2022/01/18 03:41:36;;;;;;;2.50;1.40;;;22.00;44.40;;;;;;5098918;28;20119;-43
2022/01/18 03:44:02;;;;;;;2.58;1.02;;;22.00;44.60;;;;;;5101149;28;20110;-44
2022/01/18 03:46:28;;;;;;;1.20;1.10;;;22.20;44.30;;;;;;5101189;28;20125;-42
2022/01/18 03:48:54;;;;;;;2.33;0.95;;;22.40;43.70;;;;;;5100304;28;20035;-43
2022/01/18 03:51:21;;;;;;;1.55;1.10;;;22.30;44.10;;;;;;5100197;28;20093;-46
2022/01/18 03:53:51;;;;;;;1.52;1.10;;;22.20;44.50;;;;;;5099269;28;20044;-45
2022/01/18 03:56:17;;;;;;;1.00;0.90;;;22.10;44.80;;;;;;5100432;28;20099;-43
2022/01/18 03:58:43;;;;;;;1.17;1.05;;;22.20;44.10;;;;;;5099697;28;20023;-47
2022/01/18 04:01:09;;;;;;;1.25;0.98;;;22.20;44.00;;;;;;5097629;28;20035;-44
2022/01/18 04:03:35;;;;;;;1.70;1.00;;;22.30;43.90;;;;;;5100089;28;20028;-44
2022/01/18 04:06:01;;;;;;;0.90;0.70;;;22.50;43.50;;;;;;5100803;28;20040;-45
2022/01/18 04:08:28;;;;;;;1.13;1.00;;;22.50;43.40;;;;;;5100445;28;20028;-42
2022/01/18 04:10:54;;;;;;;1.08;0.90;;;22.50;43.70;;;;;;5100583;28;20096;-45
2022/01/18 04:13:20;;;;;;;1.42;1.00;;;22.40;44.00;;;;;;5082825;28;20040;-44
2022/01/18 04:15:46;;;;;;;1.20;1.10;;;22.30;44.30;;;;;;5101527;28;20072;-43
2022/01/18 04:18:32;;;;;;;1.67;1.02;;;22.30;44.00;;;;;;5100993;28;20464;-43
2022/01/18 04:28:57;;;;;;;1.45;1.17;;;22.70;43.30;;;;;;5102076;28;20488;-45
2022/01/18 04:31:23;;;;;;;;;;;22.50;43.70;;;;;;5100789;28;20036;-45
2022/01/18 04:33:50;;;;;;;1.15;1.00;;;22.40;44.10;;;;;;5101324;28;20044;-45
2022/01/18 04:36:16;;;;;;;1.30;1.00;;;22.30;43.80;;;;;;5095700;28;20050;-44
2022/01/18 04:38:42;;;;;;;1.13;0.90;;;22.50;43.40;;;;;;5099986;28;20590;-43
2022/01/18 04:41:12;;;;;;;1.27;1.08;;;22.60;42.90;;;;;;5100766;28;20039;-43
2022/01/18 04:49:05;;;;;;;1.08;0.90;;;22.70;43.30;;;;;;5098644;28;20027;-44
2022/01/18 04:51:31;;;;;;;1.00;0.90;;;22.50;44.00;;;;;;5100987;28;20083;-43
2022/01/18 04:54:00;;;;;;;1.20;0.90;;;22.50;43.80;;;;;;5100085;28;20335;-44
2022/01/18 04:59:15;;;;;;;2.40;1.03;;;22.60;43.00;;;;;;5067681;28;20041;-45
2022/01/18 05:01:42;;;;;;;0.77;0.77;;;22.70;42.80;;;;;;5100496;28;20050;-45
2022/01/18 05:04:08;;;;;;;0.80;0.80;;;22.90;42.80;;;;;;5101221;28;20035;-44
2022/01/18 05:06:35;;;;;;;1.17;1.08;;;22.80;43.70;;;;;;5100472;28;20107;-45
2022/01/18 05:09:07;;;;;;;2.00;1.00;;;22.60;43.60;;;;;;5100740;28;20031;-44
2022/01/18 05:11:39;;;;;;;1.10;1.00;;;22.50;43.60;;;;;;5101402;28;20143;-43
2022/01/18 05:14:21;;;;;;;1.00;0.90;;;22.60;43.20;;;;;;5105907;28;20036;-44
2022/01/18 05:16:56;;;;;;;1.05;0.82;;;22.70;42.70;;;;;;5092506;28;20034;-47
2022/01/18 05:19:37;;;;;;;1.33;0.70;;;22.80;42.90;;;;;;5100929;28;20024;-45
2022/01/18 05:24:33;;;;;;;0.77;0.63;;;22.80;43.40;;;;;;5099208;28;20024;-43
2022/01/18 05:27:00;;;;;;;1.17;1.02;;;22.60;43.60;;;;;;5100822;28;20039;-45
2022/01/18 05:29:26;;;;;;;0.90;0.80;;;22.60;43.30;;;;;;5099299;28;20020;-44
2022/01/18 05:31:53;;;;;;;1.03;0.93;;;22.80;42.70;;;;;;5105476;28;20040;-44
2022/01/18 05:34:19;;;;;;;1.13;1.00;;;22.80;42.40;;;;;;5100022;28;20020;-46
2022/01/18 05:36:45;;;;;;;0.93;0.90;;;22.80;42.60;;;;;;5104706;28;20028;-45
2022/01/18 05:39:11;;;;;;;1.00;0.90;;;23.00;42.40;;;;;;5103997;28;20488;-44
2022/01/18 05:41:38;;;;;;;1.00;0.90;;;22.90;43.00;;;;;;5103684;28;20036;-44
2022/01/18 05:44:04;;;;;;;0.70;0.70;;;22.70;43.40;;;;;;5104790;28;20070;-45
2022/01/18 05:46:31;;;;;;;1.00;0.90;;;22.60;43.40;;;;;;5103140;28;20032;-43
2022/01/18 05:49:00;;;;;;;0.80;0.80;;;22.70;42.80;;;;;;5102902;28;20024;-44
2022/01/18 05:51:27;;;;;;;0.80;0.80;;;22.80;42.50;;;;;;5103698;28;20055;-44
2022/01/18 05:53:54;;;;;;;0.77;0.77;;;22.80;42.30;;;;;;5104393;28;20155;-44
2022/01/18 05:56:20;;;;;;;0.90;0.80;;;22.90;42.50;;;;;;5102633;28;20031;-43
2022/01/18 05:59:06;;;;;;;1.13;1.02;;;22.90;42.90;;;;;;5104517;28;20545;-44
2022/01/18 06:01:33;;;;;;;1.10;0.90;;;22.70;43.30;;;;;;5103190;28;20061;-44
2022/01/18 06:09:11;;;;;;;1.00;0.90;;;22.90;42.40;;;;;;5104141;28;20106;-44
2022/01/18 06:11:37;;;;;;;1.20;0.65;;;22.90;42.20;;;;;;5104147;28;20040;-43
2022/01/18 06:14:03;;;;;;;0.82;0.77;;;22.90;42.50;;;;;;5104070;28;20144;-45
2022/01/18 06:16:29;;;;;;;1.15;0.90;;;22.80;42.80;;;;;;5104455;28;20036;-43
2022/01/18 06:18:56;;;;;;;0.90;0.80;;;22.70;43.50;;;;;;5103444;28;20026;-45
2022/01/18 06:21:22;;;;;;;0.70;0.70;;;22.70;43.40;;;;;;5104315;28;20052;-44
2022/01/18 06:23:48;;;;;;;0.70;0.70;;;22.80;43.00;;;;;;5106301;28;20060;-44
2022/01/18 06:26:16;;;;;;;0.70;0.70;;;22.80;42.60;;;;;;5104050;28;20028;-44
2022/01/18 06:28:45;;;;;;;0.75;0.70;;;22.90;42.30;;;;;;5104202;28;20024;-44
2022/01/18 06:31:12;;;;;;;0.60;0.60;;;22.90;42.50;;;;;;5101800;28;20036;-43
2022/01/18 06:33:38;;;;;;;;;;;22.90;42.90;;;;;;5103008;28;20028;-44
2022/01/18 06:36:05;;;;;;;1.20;0.70;;;22.80;43.30;;;;;;5103387;28;19957;-43
2022/01/18 06:38:31;;;;;;;0.70;0.70;;;22.70;43.30;;;;;;5103619;28;20079;-43
2022/01/18 06:40:57;;;;;;;0.63;0.60;;;22.70;43.10;;;;;;5102082;28;20028;-44
2022/01/18 06:43:23;;;;;;;0.85;0.77;;;23.00;42.40;;;;;;5102609;28;20020;-44
2022/01/18 06:45:50;;;;;;;2.22;0.80;;;23.00;42.20;;;;;;5101717;28;20024;-44
2022/01/18 06:48:16;;;;;;;2.53;0.57;;;23.00;42.70;;;;;;5084314;28;20031;-44
2022/01/18 06:50:42;;;;;;;1.35;0.60;;;22.90;43.40;;;;;;5083511;28;20042;-44
2022/01/18 06:53:08;;;;;;;0.95;0.80;;;22.70;43.80;;;;;;5102619;28;20024;-43
2022/01/18 06:55:34;;;;;;;1.77;0.60;;;22.60;43.60;;;;;;5100050;28;20118;-45
2022/01/18 06:58:01;;;;;;;0.80;0.70;;;22.60;43.10;;;;;;5098872;28;20102;-45
2022/01/18 07:00:27;;;;;;;0.50;0.50;;;22.60;43.00;;;;;;5083559;28;20028;-43
2022/01/18 07:02:53;;;;;;;0.70;0.60;;;22.70;42.90;;;;;;5102416;28;20028;-42
2022/01/18 07:05:20;;;;;;;1.25;0.73;;;22.70;42.80;;;;;;5102714;28;20039;-44
2022/01/18 07:07:47;;;;;;;1.15;0.50;;;22.60;43.40;;;;;;5102824;28;20027;-44
2022/01/18 07:10:13;;;;;;;2.55;0.65;;;22.50;43.60;;;;;;5102866;28;20043;-44
2022/01/18 07:12:40;;;;;;;0.88;0.63;;;22.40;43.40;;;;;;5102352;28;20052;-45
2022/01/18 07:15:06;;;;;;;1.23;0.93;;;22.30;43.10;;;;;;5102948;28;20031;-44
2022/01/18 07:17:34;;;;;;;0.55;0.55;;;22.40;43.20;;;;;;5103059;28;20097;-45
2022/01/18 07:20:00;;;;;;;0.70;0.65;;;22.40;43.00;;;;;;5102192;28;20031;-45
2022/01/18 07:22:26;;;;;;;0.60;0.60;;;22.50;43.20;;;;;;5099250;28;20028;-44
2022/01/18 07:24:56;;;;;;;0.63;0.63;;;22.40;43.30;;;;;;5103180;28;20092;-44
2022/01/18 07:27:23;;;;;;;0.98;0.80;;;22.40;43.60;;;;;;5103385;28;20092;-45
2022/01/18 07:29:49;;;;;;;0.57;0.50;;;22.30;43.70;;;;;;5100951;28;20039;-45
2022/01/18 07:32:15;;;;;;;0.50;0.50;;;22.20;43.30;;;;;;5084733;28;20564;-43
2022/01/18 07:34:49;;;;;;;0.57;0.57;;;22.20;43.30;;;;;;5102152;28;20035;-44
2022/01/18 07:37:15;;;;;;;0.70;0.63;;;22.30;43.30;;;;;;5103150;28;20058;-44
2022/01/18 07:39:42;;;;;;;0.60;0.60;;;22.30;43.10;;;;;;5103059;28;20150;-44
2022/01/18 07:42:08;;;;;;;0.80;0.70;;;22.30;43.50;;;;;;5103123;28;20516;-44
2022/01/18 07:44:34;;;;;;;0.60;0.57;;;22.20;43.60;;;;;;5102335;28;20032;-43
2022/01/18 07:47:00;;;;;;;0.90;0.70;;;22.10;43.80;;;;;;5102774;28;20272;-44
2022/01/18 07:49:26;;;;;;;0.50;0.50;;;22.00;43.70;;;;;;5095106;28;20051;-45
2022/01/18 07:51:53;;;;;;;0.65;0.65;;;22.00;43.60;;;;;;5100723;28;20043;-44
2022/01/18 07:54:19;;;;;;;0.50;0.40;;;22.10;43.50;;;;;;5101411;28;20047;-43
2022/01/18 07:56:45;;;;;;;0.60;0.60;;;22.20;43.50;;;;;;5102380;28;20035;-44
2022/01/18 07:59:14;;;;;;;0.50;0.50;;;22.20;43.90;;;;;;5102417;28;20012;-46
2022/01/18 08:01:42;;;;;;;0.60;0.60;;;22.10;44.10;;;;;;5099659;28;20019;-43
2022/01/18 08:04:08;;;;;;;0.60;0.60;;;21.90;44.10;;;;;;5101147;28;20048;-43
2022/01/18 08:06:35;;;;;;;0.50;0.50;;;21.90;43.80;;;;;;5100339;28;20057;-45
2022/01/18 08:09:01;;;;;;;0.60;0.60;;;21.90;43.90;;;;;;5101734;28;20040;-45
2022/01/18 08:11:27;;;;;;;1.00;0.68;;;22.00;43.80;;;;;;5102174;28;20051;-44
2022/01/18 08:13:53;;;;;;;0.55;0.55;;;22.10;43.70;;;;;;5099910;28;20111;-45
2022/01/18 08:18:59;;;;;;;0.50;0.50;;;22.00;44.20;;;;;;5101782;28;20709;-44
2022/01/18 08:21:25;;;;;;;0.57;0.50;;;21.90;44.20;;;;;;5099615;28;20032;-43
2022/01/18 08:23:51;;;;;;;0.70;0.60;;;21.80;44.20;;;;;;5102046;28;20032;-43
2022/01/18 08:26:17;;;;;;;0.60;0.60;;;21.80;44.00;;;;;;5101618;28;20028;-45
2022/01/18 08:28:43;;;;;;;0.55;0.50;;;21.90;44.00;;;;;;5101713;28;20074;-45
2022/01/18 08:31:10;;;;;;;0.70;0.60;;;21.90;43.90;;;;;;5098696;28;20047;-44
2022/01/18 08:33:36;;;;;;;0.47;0.40;;;21.90;44.20;;;;;;5102195;28;20058;-44
2022/01/18 08:36:06;;;;;;;0.50;0.50;;;21.80;44.20;;;;;;5101979;28;20119;-43
2022/01/18 08:38:33;;;;;;;0.50;0.40;;;21.70;44.40;;;;;;5083716;28;20032;-44
2022/01/18 08:41:00;;;;;;;0.57;0.50;;;21.70;44.60;;;;;;5102169;28;20104;-44
2022/01/18 08:43:30;;;;;;;0.82;0.50;;;21.60;44.20;;;;;;5101529;28;20028;-46
2022/01/18 08:46:00;;;;;;;0.50;0.50;;;21.70;44.20;;;;;;5101620;28;20028;-44
2022/01/18 08:48:26;;;;;;;0.57;0.50;;;21.80;44.20;;;;;;5100772;28;20028;-46
2022/01/18 08:50:52;;;;;;;0.95;0.77;;;21.80;44.30;;;;;;5101210;28;20050;-44
2022/01/18 08:53:18;;;;;;;0.70;0.60;;;21.70;44.60;;;;;;5101705;28;20032;-46
2022/01/18 08:55:44;;;;;;;0.80;0.60;;;21.60;44.60;;;;;;5083477;28;20043;-44
2022/01/18 08:58:11;;;;;;;0.77;0.40;;;21.50;44.50;;;;;;5100809;28;20056;-46
2022/01/18 09:00:37;;;;;;;0.60;0.50;;;21.50;44.40;;;;;;5091951;28;20040;-45
2022/01/18 09:03:03;;;;;;;0.50;0.43;;;21.60;44.40;;;;;;5101657;28;20020;-44
2022/01/18 09:05:29;;;;;;;0.60;0.52;;;21.70;44.40;;;;;;5084624;28;20024;-44
2022/01/18 09:07:59;;;;;;;0.52;0.50;;;21.70;44.40;;;;;;5087770;28;20027;-44
2022/01/18 09:10:26;;;;;;;0.40;0.40;;;21.60;44.80;;;;;;5105525;28;20044;-45
2022/01/18 09:12:52;;;;;;;0.60;0.60;;;21.50;44.80;;;;;;5103723;28;20051;-44
2022/01/18 09:15:19;;;;;;;1.05;0.47;;;21.50;44.90;;;;;;5104108;28;20032;-44
2022/01/18 09:17:45;;;;;;;0.57;0.52;;;21.50;44.70;;;;;;5105071;28;20027;-43
2022/01/18 09:20:12;;;;;;;0.57;0.50;;;21.50;44.80;;;;;;5105033;28;20115;-43
2022/01/18 09:22:40;;;;;;;0.85;0.68;;;21.60;44.80;;;;;;5105384;28;20028;-44
2022/01/18 09:25:09;;;;;;;0.60;0.60;;;21.60;44.70;;;;;;5105727;28;20604;-44
2022/01/18 09:27:35;;;;;;;0.57;0.43;;;21.60;45.10;;;;;;5104035;28;20036;-46
2022/01/18 09:30:02;;;;;;;0.60;0.60;;;21.50;45.20;;;;;;5104192;28;20039;-45
2022/01/18 09:32:28;;;;;;;0.50;0.50;;;21.40;45.10;;;;;;5096868;28;20086;-46
2022/01/18 09:34:54;;;;;;;0.88;0.65;;;21.40;44.90;;;;;;5105020;28;20552;-46
2022/01/18 09:37:20;;;;;;;0.63;0.52;;;21.40;44.90;;;;;;5086294;28;20035;-46
2022/01/18 09:39:47;;;;;;;0.95;0.70;;;21.50;44.80;;;;;;5105108;28;20031;-45
2022/01/18 09:42:13;;;;;;;0.60;0.57;;;21.60;44.70;;;;;;5086963;28;20028;-45
2022/01/18 09:44:39;;;;;;;0.70;0.52;;;21.50;45.00;;;;;;5105391;28;20028;-44
2022/01/18 09:47:06;;;;;;;0.30;0.30;;;21.40;45.10;;;;;;5104692;28;20032;-45
2022/01/18 09:49:33;;;;;;;0.60;0.50;;;21.30;45.20;;;;;;5104071;28;20032;-44
2022/01/18 09:51:59;;;;;;;0.57;0.50;;;21.30;45.00;;;;;;5104847;28;20131;-44
2022/01/18 09:54:25;;;;;;;0.60;0.60;;;21.40;44.90;;;;;;5104403;28;20083;-45
2022/01/18 09:56:51;;;;;;;0.50;0.50;;;21.40;44.90;;;;;;5104697;28;20024;-44
2022/01/18 09:59:18;;;;;;;0.60;0.57;;;21.50;44.80;;;;;;5104126;28;20099;-44
2022/01/18 10:01:44;;;;;;;0.40;0.40;;;21.40;45.10;;;;;;5103361;28;20107;-44
2022/01/18 10:04:26;;;;;;;0.55;0.50;;;21.40;45.10;;;;;;5103946;28;20040;-44
2022/01/18 10:06:54;;;;;;;0.60;0.57;;;21.30;45.20;;;;;;5103974;28;20031;-45
2022/01/18 10:09:21;;;;;;;0.40;0.40;;;21.30;45.10;;;;;;5098706;28;20039;-44
2022/01/18 10:12:03;;;;;;;0.50;0.47;;;21.30;45.00;;;;;;5085704;28;20056;-47
2022/01/18 10:14:30;;;;;;;0.52;0.52;;;21.40;45.00;;;;;;5107667;28;20695;-44
2022/01/18 10:16:56;;;;;;;0.50;0.50;;;21.40;44.80;;;;;;5102764;28;20020;-46
2022/01/18 10:19:30;;;;;;;0.60;0.60;;;21.40;45.10;;;;;;5104458;28;20087;-45
2022/01/18 10:22:07;;;;;;;0.60;0.60;;;21.30;45.20;;;;;;5091110;28;20032;-45
2022/01/18 10:24:33;;;;;;;0.45;0.40;;;21.20;45.20;;;;;;5102102;28;20039;-44
2022/01/18 10:26:59;;;;;;;0.47;0.45;;;21.20;45.10;;;;;;5103299;28;20024;-46
2022/01/18 10:29:40;;;;;;;0.73;0.60;;;21.30;45.10;;;;;;5103972;28;20024;-44
2022/01/18 10:32:17;;;;;;;0.70;0.52;;;21.40;45.10;;;;;;5098351;28;20572;-45
2022/01/18 10:37:19;;;;;;;0.85;0.65;;;21.30;45.40;;;;;;5103423;28;20032;-45
2022/01/18 10:39:52;;;;;;;0.52;0.52;;;21.20;45.40;;;;;;5088496;28;20067;-44
2022/01/18 10:42:41;;;;;;;0.40;0.40;;;21.10;45.30;;;;;;5103144;28;20038;-44
2022/01/18 10:45:14;;;;;;;0.43;0.40;;;21.10;45.20;;;;;;5094453;28;20036;-44
2022/01/18 10:47:51;;;;;;;0.40;0.40;;;21.20;45.30;;;;;;5098261;28;20051;-46
2022/01/18 10:50:18;;;;;;;0.50;0.50;;;21.20;45.10;;;;;;5105746;28;20118;-44
2022/01/18 10:52:44;;;;;;;0.60;0.57;;;21.20;45.30;;;;;;5103703;28;20063;-44
2022/01/18 10:55:18;;;;;;;0.52;0.50;;;21.20;45.40;;;;;;5084902;28;20036;-44
2022/01/18 10:57:45;;;;;;;0.80;0.60;;;21.00;45.50;;;;;;5101477;28;20035;-43
2022/01/18 11:00:13;;;;;;;0.47;0.40;;;21.00;45.60;;;;;;5086578;28;20511;-45
2022/01/18 11:02:43;;;;;;;0.50;0.50;;;21.00;45.50;;;;;;5101975;28;20812;-44
2022/01/18 11:05:27;;;;;;;0.95;0.50;;;21.10;45.40;;;;;;5090104;28;20028;-44
2022/01/18 11:07:54;;;;;;;0.90;0.70;;;21.10;45.40;;;;;;5097433;28;20036;-44
2022/01/18 11:10:23;;;;;;;0.40;0.38;;;21.10;45.80;;;;;;5092133;28;20118;-47
2022/01/18 11:13:03;;;;;;;0.88;0.60;;;21.00;45.70;;;;;;5095739;28;20111;-44
2022/01/18 11:15:35;;;;;;;0.50;0.40;;;21.00;45.80;;;;;;5099518;28;20035;-44
2022/01/18 11:18:05;;;;;;;0.57;0.57;;;21.00;45.60;;;;;;5107159;28;20024;-44
2022/01/18 11:20:32;;;;;;;0.60;0.60;;;21.00;45.50;;;;;;5099016;28;20031;-44
2022/01/18 11:22:59;;;;;;;0.70;0.55;;;21.10;45.40;;;;;;5098091;28;20101;-45
2022/01/18 11:25:25;;;;;;;0.60;0.60;;;21.20;45.40;;;;;;5104917;28;20097;-44
2022/01/18 11:27:53;;;;;;;0.77;0.50;;;21.10;45.60;;;;;;5102345;28;20032;-44
2022/01/18 11:30:21;;;;;;;1.02;0.43;;;21.00;45.70;;;;;;5100279;28;21395;-44
2022/01/18 11:32:49;;;;;;;0.60;0.60;;;20.90;45.80;;;;;;5097300;28;20047;-47
2022/01/18 11:35:19;;;;;;;1.00;0.70;;;20.90;45.50;;;;;;5077916;28;20097;-49
2022/01/18 11:38:12;;;;;;;0.70;0.55;;;21.00;45.50;;;;;;5102356;28;20032;-46
2022/01/18 11:40:46;;;;;;;0.60;0.60;;;21.10;45.40;;;;;;5112965;27;20039;-45
2022/01/18 11:43:13;;;;;;;0.60;0.60;;;21.10;45.50;;;;;;5100919;28;20043;-46
2022/01/18 11:45:41;;;;;;;0.70;0.60;;;21.00;45.70;;;;;;5099818;28;20166;-45
2022/01/18 11:48:20;;;;;;;0.50;0.50;;;20.90;45.70;;;;;;5093543;28;20492;-44
2022/01/18 11:51:00;;;;;;;0.90;0.70;;;20.90;45.80;;;;;;5094298;28;20542;-45
2022/01/18 11:56:11;;;;;;;1.40;0.70;;;20.90;45.60;;;;;;5102201;28;20027;-46
2022/01/18 11:58:38;;;;;;;0.50;0.50;;;21.00;45.50;;;;;;5116918;28;20024;-45
2022/01/18 12:01:04;;;;;;;0.80;0.70;;;21.00;45.60;;;;;;5095225;28;20035;-45
2022/01/18 12:03:32;;;;;;;1.17;0.60;;;20.90;45.70;;;;;;5102551;28;20058;-45
2022/01/18 12:06:02;;;;;;;0.60;0.50;;;20.90;45.90;;;;;;5100209;28;20032;-45
2022/01/18 12:08:32;;;;;;;0.80;0.70;;;20.80;45.90;;;;;;5097945;28;20024;-44
2022/01/18 12:10:58;;;;;;;0.57;0.52;;;20.90;45.70;;;;;;5105029;28;20046;-45
2022/01/18 12:13:33;;;;;;;0.63;0.60;;;20.90;45.60;;;;;;5091595;28;20050;-44
2022/01/18 12:16:00;;;;;;;0.70;0.50;;;21.00;45.60;;;;;;5100978;28;20020;-45
2022/01/18 12:18:29;;;;;;;0.70;0.68;;;20.90;45.70;;;;;;5098586;28;20040;-47
2022/01/18 12:21:00;;;;;;;0.90;0.80;;;20.90;45.90;;;;;;5099296;28;20598;-44
2022/01/18 12:23:27;;;;;;;0.60;0.60;;;20.80;45.90;;;;;;5102273;28;20443;-45
2022/01/18 12:25:59;;;;;;;0.60;0.50;;;20.70;45.80;;;;;;5097248;28;20028;-44
2022/01/18 12:34:35;;;;;;;0.77;0.57;;;20.90;45.70;;;;;;5102866;28;20127;-44
2022/01/18 12:39:54;;;;;;;0.70;0.70;;;20.80;45.80;;;;;;5099545;28;20115;-47
2022/01/18 12:45:11;;;;;;;0.70;0.70;;;20.70;45.60;;;;;;5107571;28;20035;-45
2022/01/18 12:47:42;;;;;;;0.80;0.70;;;20.80;45.60;;;;;;5103639;28;20024;-45
2022/01/18 12:50:09;;;;;;;0.77;0.60;;;20.90;45.70;;;;;;5099603;28;20039;-48
2022/01/18 12:52:45;;;;;;;;;;;20.90;45.70;;;;;;5105325;28;20078;-46
2022/01/18 12:55:35;;;;;;;0.52;0.52;;;20.80;45.80;;;;;;5102193;28;19908;-47
2022/01/18 12:58:07;;;;;;;0.90;0.70;;;20.70;45.90;;;;;;5094302;28;20064;-45
2022/01/18 13:00:41;;;;;;;0.50;0.50;;;20.70;45.90;;;;;;5107143;28;20032;-45
2022/01/18 13:03:07;;;;;;;0.65;0.63;;;20.70;45.70;;;;;;5101068;28;20065;-44
2022/01/18 13:05:34;;;;;;;1.00;0.73;;;20.80;45.80;;;;;;5109029;28;20024;-45
2022/01/18 13:08:00;;;;;;;1.00;0.82;;;20.80;46.40;;;;;;5101860;28;20024;-45
2022/01/18 13:10:37;;;;;;;0.70;0.60;;;20.80;46.10;;;;;;5099743;28;20036;-44
2022/01/18 13:13:04;;;;;;;1.02;0.73;;;20.70;46.20;;;;;;5081400;28;20060;-46
2022/01/18 13:26:56;;;;;;;0.68;0.68;;;20.30;46.50;;;;;;5100609;28;20016;-46
2022/01/18 13:29:24;;;;;;;1.00;0.90;;;20.20;46.60;;;;;;5094578;28;20039;-47
2022/01/18 13:32:00;;;;;;;0.98;0.80;;;20.20;46.40;;;;;;5100466;28;20028;-45
2022/01/18 13:34:41;;;;;;;1.02;0.70;;;20.30;46.20;;;;;;5100381;28;20031;-45
2022/01/18 13:37:18;;;;;;;1.45;0.90;;;20.30;46.20;;;;;;5112536;28;20024;-45
2022/01/18 13:39:51;;;;;;;0.98;0.80;;;20.20;46.20;;;;;;5110087;28;20059;-45
2022/01/18 13:42:24;;;;;;;0.70;0.70;;;20.20;46.50;;;;;;5101340;28;20092;-44
2022/01/18 13:45:19;;;;;;;2.08;0.88;;;20.10;46.50;;;;;;5095576;28;20102;-45
2022/01/18 13:47:51;;;;;;;0.90;0.73;;;20.10;46.40;;;;;;5101220;28;20035;-46
2022/01/18 13:50:43;;;;;;;0.75;0.75;;;20.10;46.20;;;;;;5101601;28;20072;-45
2022/01/18 13:53:30;;;;;;;0.90;0.90;;;20.20;46.20;;;;;;5102910;28;20035;-46
2022/01/18 13:56:17;;;;;;;2.35;0.70;;;20.20;46.40;;;;;;5090106;28;20059;-45
2022/01/18 13:58:48;;;;;;;1.23;0.80;;;20.10;46.40;;;;;;5102799;28;20027;-50
2022/01/18 14:01:50;;;;;;;0.85;0.73;;;20.00;46.50;;;;;;5083322;28;20028;-52
2022/01/18 14:04:18;;;;;;;3.08;0.80;;;19.90;46.30;;;;;;5086212;28;20044;-51
2022/01/18 14:06:44;;;;;;;0.90;0.80;;;20.00;46.20;;;;;;5103669;28;20032;-51
2022/01/18 14:09:12;;;;;;;0.80;0.70;;;20.10;46.10;;;;;;5103908;28;20058;-45
2022/01/18 14:11:38;;;;;;;1.00;0.70;;;20.20;46.20;;;;;;5092510;28;20048;-44
2022/01/18 14:14:30;;;;;;;1.35;0.82;;;20.20;46.20;;;;;;5106256;28;20748;-44
2022/01/18 14:16:58;;;;;;;1.05;0.80;;;20.10;46.40;;;;;;5103428;28;20023;-44
2022/01/18 14:19:41;;;;;;;2.08;0.65;;;20.10;46.40;;;;;;5103365;28;20031;-44
2022/01/18 14:22:14;;;;;;;1.08;0.80;;;19.90;46.50;;;;;;5106195;28;20016;-44
2022/01/18 14:24:45;;;;;;;1.35;0.70;;;19.90;46.40;;;;;;5085080;28;20135;-45
2022/01/18 14:27:13;;;;;;;0.55;0.50;;;20.00;46.40;;;;;;5085394;28;20025;-46
2022/01/18 14:29:42;;;;;;;0.98;0.80;;;20.10;46.30;;;;;;5101988;28;20027;-45
2022/01/18 14:32:09;;;;;;;0.60;0.55;;;20.10;46.40;;;;;;5105031;28;20103;-46
2022/01/18 14:34:48;;;;;;;0.57;0.50;;;20.10;46.50;;;;;;5106641;28;20025;-45
2022/01/18 14:37:15;;;;;;;0.80;0.80;;;20.00;46.50;;;;;;5111724;28;20398;-45